KIFP/IFP METAR and TAF weather

Enter ICAO airport designator
Station Type Date Time Source
KIFP METAR 2020/01/29 12:55 UTC NOAA

KIFP 291255Z AUTO VRB04KT 10SM CLR 12/M00 A2997 RMK AO2


Station Type Date Time Source
KIFP Decoded METAR 2020/01/29 12:55 UTC NOAA

Bullhead City, Laughlin/Bullhead International Airport, AZ, United States (KIFP) 35-09-27N 114-33-34W
Jan 29, 2020 - 07:55 AM EST / 2020.01.29 1255 UTC
Wind: Variable at 5 MPH (4 KT):0
Visibility: 10 mile(s):0
Sky conditions: clear
Temperature: 53 F (12 C)
Dew Point: 32 F (0 C)
Relative Humidity: 43%
Pressure (altimeter): 29.97 in. Hg (1014 hPa)
ob: KIFP 291255Z AUTO VRB04KT 10SM CLR 12/M00 A2997 RMK AO2
cycle: 13

Station Type Date Time Source
KIFP TAF 2020/01/29 12:36 UTC NOAA

TAF KIFP 291132Z 2912/3012 05007KT P6SM FEW150 SCT250
FM291400 01013G23KT P6SM FEW250
FM291700 01025G35KT P6SM SKC
FM292000 36032G42KT P6SM SKC
FM300300 01015G25KT P6SM SKC

Example: see airport list